Current Conditions
Rain
Conditions



Pressure
1004.92 (hPa) - 29.68 (inHG)
Visibility

5.0 (km) - 3.1 (miles)
Temperature
4  °C
Temperature
4  °C
Dewpoint
100  %
 Humidity
Wind Speed
5  km/h
3  kts
3  mph
1.3  m/s
Wind Direction
N
45°
E
90°
135°
S
180°
225°
W
270°
315°
 290°

West North
West
Airport Data
LIME
Milan Bergamo Airport
Metar :LIME 090550Z AUTO 29003KT 5000 -RA OVC025/// 04/04 Q1005 REDZ
Fri 9th December 06:50 am
Raw Metar Info
Raw METAR is the most common format in the world for the transmission of observational weather data. It is highly standardized through the International Civil Aviation Organization (ICAO), which allows it to be understood throughout most of the world.
API Info
Data Provided by
https://www.checkwx.com/weather/LIME

Aviation Weather providing METAR, TAF, AIRMET, SIGMET and OUTLOOK Weather Reports
© Info
CSS/SVG/PHP scripts were developed by weather34 for use in the weather34 template © 2015-2022

Guide Info provided by Metar-Wikipedia